sensor_id;sensor_type;location;lat;lon;timestamp;P1;durP1;ratioP1;P2;durP2;ratioP2
21272;SDS011;36726;52.328;10.552;2022-12-07T00:03:43;16.23;;;9.18;;
21272;SDS011;36726;52.328;10.552;2022-12-07T00:06:12;17.55;;;9.77;;
21272;SDS011;36726;52.328;10.552;2022-12-07T00:08:39;18.13;;;10.02;;
21272;SDS011;36726;52.328;10.552;2022-12-07T00:11:07;17.58;;;9.25;;
21272;SDS011;36726;52.328;10.552;2022-12-07T00:13:38;16.75;;;9.77;;
21272;SDS011;36726;52.328;10.552;2022-12-07T00:18:34;16.30;;;9.65;;
21272;SDS011;36726;52.328;10.552;2022-12-07T00:21:02;16.33;;;9.38;;
21272;SDS011;36726;52.328;10.552;2022-12-07T00:23:31;16.98;;;8.95;;
21272;SDS011;36726;52.328;10.552;2022-12-07T00:26:08;14.10;;;8.90;;
21272;SDS011;36726;52.328;10.552;2022-12-07T00:28:37;16.27;;;9.55;;
21272;SDS011;36726;52.328;10.552;2022-12-07T00:31:06;17.70;;;9.48;;
21272;SDS011;36726;52.328;10.552;2022-12-07T00:33:34;18.10;;;9.75;;
21272;SDS011;36726;52.328;10.552;2022-12-07T00:36:03;18.55;;;10.30;;
21272;SDS011;36726;52.328;10.552;2022-12-07T00:38:34;22.10;;;9.98;;
21272;SDS011;36726;52.328;10.552;2022-12-07T00:41:02;19.63;;;10.63;;
21272;SDS011;36726;52.328;10.552;2022-12-07T00:43:30;18.15;;;10.05;;
21272;SDS011;36726;52.328;10.552;2022-12-07T00:45:58;16.73;;;9.75;;
21272;SDS011;36726;52.328;10.552;2022-12-07T00:48:25;17.42;;;10.20;;
21272;SDS011;36726;52.328;10.552;2022-12-07T00:50:52;21.25;;;10.13;;
21272;SDS011;36726;52.328;10.552;2022-12-07T00:53:18;18.13;;;10.80;;
21272;SDS011;36726;52.328;10.552;2022-12-07T00:55:46;18.00;;;10.80;;
21272;SDS011;36726;52.328;10.552;2022-12-07T00:58:12;19.33;;;11.23;;
21272;SDS011;36726;52.328;10.552;2022-12-07T01:00:40;20.45;;;11.38;;
21272;SDS011;36726;52.328;10.552;2022-12-07T01:03:11;18.10;;;10.52;;
21272;SDS011;36726;52.328;10.552;2022-12-07T01:05:40;25.10;;;12.32;;
21272;SDS011;36726;52.328;10.552;2022-12-07T01:08:14;22.80;;;12.00;;
21272;SDS011;36726;52.328;10.552;2022-12-07T01:10:41;19.35;;;11.65;;
21272;SDS011;36726;52.328;10.552;2022-12-07T01:13:08;24.08;;;12.30;;
21272;SDS011;36726;52.328;10.552;2022-12-07T01:15:38;20.55;;;12.30;;
21272;SDS011;36726;52.328;10.552;2022-12-07T01:18:06;21.77;;;11.65;;
21272;SDS011;36726;52.328;10.552;2022-12-07T01:20:33;20.52;;;12.10;;
21272;SDS011;36726;52.328;10.552;2022-12-07T01:22:59;22.88;;;12.85;;
21272;SDS011;36726;52.328;10.552;2022-12-07T01:25:26;25.33;;;12.32;;
21272;SDS011;36726;52.328;10.552;2022-12-07T01:27:53;22.05;;;12.90;;
21272;SDS011;36726;52.328;10.552;2022-12-07T01:30:19;22.20;;;12.27;;
21272;SDS011;36726;52.328;10.552;2022-12-07T01:32:46;26.30;;;12.95;;
21272;SDS011;36726;52.328;10.552;2022-12-07T01:35:13;20.33;;;13.05;;
21272;SDS011;36726;52.328;10.552;2022-12-07T01:37:40;24.42;;;13.57;;
21272;SDS011;36726;52.328;10.552;2022-12-07T01:40:07;26.20;;;14.02;;
21272;SDS011;36726;52.328;10.552;2022-12-07T01:42:34;25.27;;;12.68;;
21272;SDS011;36726;52.328;10.552;2022-12-07T01:48:07;25.48;;;13.52;;
21272;SDS011;36726;52.328;10.552;2022-12-07T01:50:37;19.23;;;12.48;;
21272;SDS011;36726;52.328;10.552;2022-12-07T01:53:06;19.98;;;11.75;;
21272;SDS011;36726;52.328;10.552;2022-12-07T01:55:37;28.48;;;13.98;;
21272;SDS011;36726;52.328;10.552;2022-12-07T01:58:06;28.50;;;13.65;;
21272;SDS011;36726;52.328;10.552;2022-12-07T02:00:33;23.38;;;13.60;;
21272;SDS011;36726;52.328;10.552;2022-12-07T02:03:24;26.33;;;13.50;;
21272;SDS011;36726;52.328;10.552;2022-12-07T02:05:58;24.67;;;13.57;;
21272;SDS011;36726;52.328;10.552;2022-12-07T02:08:26;22.33;;;13.30;;
21272;SDS011;36726;52.328;10.552;2022-12-07T02:10:53;21.58;;;13.43;;
21272;SDS011;36726;52.328;10.552;2022-12-07T02:13:34;22.73;;;13.13;;
21272;SDS011;36726;52.328;10.552;2022-12-07T02:21:36;28.50;;;13.43;;
21272;SDS011;36726;52.328;10.552;2022-12-07T02:27:02;22.40;;;12.27;;
21272;SDS011;36726;52.328;10.552;2022-12-07T02:29:54;22.63;;;12.50;;
21272;SDS011;36726;52.328;10.552;2022-12-07T02:34:55;23.52;;;12.32;;
21272;SDS011;36726;52.328;10.552;2022-12-07T02:37:40;18.85;;;12.20;;
21272;SDS011;36726;52.328;10.552;2022-12-07T02:40:20;21.80;;;12.85;;
21272;SDS011;36726;52.328;10.552;2022-12-07T02:42:55;22.63;;;12.02;;
21272;SDS011;36726;52.328;10.552;2022-12-07T02:45:28;20.80;;;12.70;;
21272;SDS011;36726;52.328;10.552;2022-12-07T02:47:58;21.08;;;12.30;;
21272;SDS011;36726;52.328;10.552;2022-12-07T02:50:26;20.48;;;12.13;;
21272;SDS011;36726;52.328;10.552;2022-12-07T02:52:53;21.63;;;11.70;;
21272;SDS011;36726;52.328;10.552;2022-12-07T02:55:22;19.10;;;12.30;;
21272;SDS011;36726;52.328;10.552;2022-12-07T02:58:14;20.35;;;11.75;;
21272;SDS011;36726;52.328;10.552;2022-12-07T03:03:58;22.83;;;12.45;;
21272;SDS011;36726;52.328;10.552;2022-12-07T03:06:36;23.02;;;12.05;;
21272;SDS011;36726;52.328;10.552;2022-12-07T03:09:32;20.05;;;12.00;;
21272;SDS011;36726;52.328;10.552;2022-12-07T03:12:09;22.20;;;12.07;;
21272;SDS011;36726;52.328;10.552;2022-12-07T03:14:46;22.00;;;12.73;;
21272;SDS011;36726;52.328;10.552;2022-12-07T03:17:25;21.48;;;11.93;;
21272;SDS011;36726;52.328;10.552;2022-12-07T03:19:56;21.35;;;12.18;;
21272;SDS011;36726;52.328;10.552;2022-12-07T03:22:25;22.20;;;12.88;;
21272;SDS011;36726;52.328;10.552;2022-12-07T03:24:57;20.13;;;12.23;;
21272;SDS011;36726;52.328;10.552;2022-12-07T03:27:28;23.42;;;12.63;;
21272;SDS011;36726;52.328;10.552;2022-12-07T03:30:04;23.10;;;12.23;;
21272;SDS011;36726;52.328;10.552;2022-12-07T03:32:44;20.50;;;12.52;;
21272;SDS011;36726;52.328;10.552;2022-12-07T03:37:48;20.77;;;11.98;;
21272;SDS011;36726;52.328;10.552;2022-12-07T03:40:28;19.35;;;11.82;;
21272;SDS011;36726;52.328;10.552;2022-12-07T03:43:01;19.85;;;11.95;;
21272;SDS011;36726;52.328;10.552;2022-12-07T03:45:37;17.23;;;10.93;;
21272;SDS011;36726;52.328;10.552;2022-12-07T03:48:23;21.55;;;11.73;;
21272;SDS011;36726;52.328;10.552;2022-12-07T03:54:21;24.75;;;11.95;;
21272;SDS011;36726;52.328;10.552;2022-12-07T03:56:52;20.27;;;11.40;;
21272;SDS011;36726;52.328;10.552;2022-12-07T03:59:20;22.35;;;11.50;;
21272;SDS011;36726;52.328;10.552;2022-12-07T04:01:56;23.13;;;11.65;;
21272;SDS011;36726;52.328;10.552;2022-12-07T04:04:28;22.95;;;11.55;;
21272;SDS011;36726;52.328;10.552;2022-12-07T04:06:55;18.73;;;10.98;;
21272;SDS011;36726;52.328;10.552;2022-12-07T04:09:21;20.00;;;10.38;;
21272;SDS011;36726;52.328;10.552;2022-12-07T04:11:49;21.42;;;9.95;;
21272;SDS011;36726;52.328;10.552;2022-12-07T04:14:15;22.45;;;11.63;;
21272;SDS011;36726;52.328;10.552;2022-12-07T04:16:45;19.88;;;11.30;;
21272;SDS011;36726;52.328;10.552;2022-12-07T04:19:16;17.90;;;10.85;;
21272;SDS011;36726;52.328;10.552;2022-12-07T04:21:44;17.85;;;10.13;;
21272;SDS011;36726;52.328;10.552;2022-12-07T04:24:12;17.38;;;10.23;;
21272;SDS011;36726;52.328;10.552;2022-12-07T04:26:40;17.35;;;9.85;;
21272;SDS011;36726;52.328;10.552;2022-12-07T04:29:08;18.60;;;10.23;;
21272;SDS011;36726;52.328;10.552;2022-12-07T04:31:35;20.55;;;10.68;;
21272;SDS011;36726;52.328;10.552;2022-12-07T04:34:03;22.17;;;10.60;;
21272;SDS011;36726;52.328;10.552;2022-12-07T04:36:30;16.38;;;10.30;;
21272;SDS011;36726;52.328;10.552;2022-12-07T04:38:57;20.02;;;10.18;;
21272;SDS011;36726;52.328;10.552;2022-12-07T04:41:24;18.27;;;11.00;;
21272;SDS011;36726;52.328;10.552;2022-12-07T04:43:59;20.40;;;10.20;;
21272;SDS011;36726;52.328;10.552;2022-12-07T04:46:29;17.20;;;10.73;;
21272;SDS011;36726;52.328;10.552;2022-12-07T04:48:57;18.08;;;9.90;;
21272;SDS011;36726;52.328;10.552;2022-12-07T04:51:25;17.80;;;10.02;;
21272;SDS011;36726;52.328;10.552;2022-12-07T04:53:53;17.30;;;10.35;;
21272;SDS011;36726;52.328;10.552;2022-12-07T04:56:22;17.52;;;10.10;;
21272;SDS011;36726;52.328;10.552;2022-12-07T04:58:49;18.10;;;9.43;;
21272;SDS011;36726;52.328;10.552;2022-12-07T05:01:21;17.75;;;9.90;;
21272;SDS011;36726;52.328;10.552;2022-12-07T05:03:49;14.80;;;8.73;;
21272;SDS011;36726;52.328;10.552;2022-12-07T05:06:15;16.88;;;9.60;;
21272;SDS011;36726;52.328;10.552;2022-12-07T05:08:42;17.63;;;9.50;;
21272;SDS011;36726;52.328;10.552;2022-12-07T05:11:09;17.65;;;9.38;;
21272;SDS011;36726;52.328;10.552;2022-12-07T05:13:57;17.73;;;9.35;;
21272;SDS011;36726;52.328;10.552;2022-12-07T05:16:23;16.17;;;8.82;;
21272;SDS011;36726;52.328;10.552;2022-12-07T05:18:50;16.83;;;7.80;;
21272;SDS011;36726;52.328;10.552;2022-12-07T05:21:17;11.80;;;7.15;;
21272;SDS011;36726;52.328;10.552;2022-12-07T05:23:44;13.00;;;7.43;;
21272;SDS011;36726;52.328;10.552;2022-12-07T05:26:11;16.48;;;7.50;;
21272;SDS011;36726;52.328;10.552;2022-12-07T05:28:38;13.32;;;7.82;;
21272;SDS011;36726;52.328;10.552;2022-12-07T05:31:04;12.90;;;7.20;;
21272;SDS011;36726;52.328;10.552;2022-12-07T05:33:31;12.88;;;7.43;;
21272;SDS011;36726;52.328;10.552;2022-12-07T05:35:58;16.27;;;7.63;;
21272;SDS011;36726;52.328;10.552;2022-12-07T05:38:24;18.88;;;7.82;;
21272;SDS011;36726;52.328;10.552;2022-12-07T05:40:51;12.68;;;7.43;;
21272;SDS011;36726;52.328;10.552;2022-12-07T05:43:17;16.80;;;8.10;;
21272;SDS011;36726;52.328;10.552;2022-12-07T05:45:44;14.38;;;7.93;;
21272;SDS011;36726;52.328;10.552;2022-12-07T05:48:11;16.38;;;8.05;;
21272;SDS011;36726;52.328;10.552;2022-12-07T05:50:37;15.23;;;8.10;;
21272;SDS011;36726;52.328;10.552;2022-12-07T05:53:04;14.23;;;7.75;;
21272;SDS011;36726;52.328;10.552;2022-12-07T05:55:30;13.63;;;7.05;;
21272;SDS011;36726;52.328;10.552;2022-12-07T05:57:57;12.02;;;7.20;;
21272;SDS011;36726;52.328;10.552;2022-12-07T06:00:42;12.90;;;7.22;;
21272;SDS011;36726;52.328;10.552;2022-12-07T06:03:16;17.02;;;7.53;;
21272;SDS011;36726;52.328;10.552;2022-12-07T06:05:45;11.68;;;7.40;;
21272;SDS011;36726;52.328;10.552;2022-12-07T06:08:11;13.57;;;7.60;;
21272;SDS011;36726;52.328;10.552;2022-12-07T06:10:38;17.70;;;7.05;;
21272;SDS011;36726;52.328;10.552;2022-12-07T06:13:05;10.48;;;6.07;;
21272;SDS011;36726;52.328;10.552;2022-12-07T06:15:31;12.68;;;6.32;;
21272;SDS011;36726;52.328;10.552;2022-12-07T06:17:58;13.90;;;6.93;;
21272;SDS011;36726;52.328;10.552;2022-12-07T06:20:24;14.63;;;7.57;;
21272;SDS011;36726;52.328;10.552;2022-12-07T06:22:51;10.05;;;6.47;;
21272;SDS011;36726;52.328;10.552;2022-12-07T06:25:17;10.38;;;6.18;;
21272;SDS011;36726;52.328;10.552;2022-12-07T06:27:44;8.07;;;4.75;;
21272;SDS011;36726;52.328;10.552;2022-12-07T06:30:11;7.13;;;4.18;;
21272;SDS011;36726;52.328;10.552;2022-12-07T06:32:37;7.30;;;2.85;;
21272;SDS011;36726;52.328;10.552;2022-12-07T06:35:04;4.00;;;2.75;;
21272;SDS011;36726;52.328;10.552;2022-12-07T06:37:31;8.60;;;2.90;;
21272;SDS011;36726;52.328;10.552;2022-12-07T06:39:57;5.90;;;2.20;;
21272;SDS011;36726;52.328;10.552;2022-12-07T06:42:24;2.42;;;1.80;;
21272;SDS011;36726;52.328;10.552;2022-12-07T06:44:51;3.92;;;1.75;;
21272;SDS011;36726;52.328;10.552;2022-12-07T06:47:17;4.13;;;1.95;;
21272;SDS011;36726;52.328;10.552;2022-12-07T06:50:04;3.60;;;2.30;;
21272;SDS011;36726;52.328;10.552;2022-12-07T06:52:32;4.15;;;2.33;;
21272;SDS011;36726;52.328;10.552;2022-12-07T06:54:59;6.35;;;3.22;;
21272;SDS011;36726;52.328;10.552;2022-12-07T06:57:25;6.78;;;4.30;;
21272;SDS011;36726;52.328;10.552;2022-12-07T06:59:52;8.60;;;4.13;;
21272;SDS011;36726;52.328;10.552;2022-12-07T07:02:19;6.45;;;3.60;;
21272;SDS011;36726;52.328;10.552;2022-12-07T07:04:45;7.90;;;4.70;;
21272;SDS011;36726;52.328;10.552;2022-12-07T07:07:12;15.88;;;5.75;;
21272;SDS011;36726;52.328;10.552;2022-12-07T07:09:38;10.60;;;6.10;;
21272;SDS011;36726;52.328;10.552;2022-12-07T07:12:05;10.73;;;5.68;;
21272;SDS011;36726;52.328;10.552;2022-12-07T07:14:32;9.30;;;6.10;;
21272;SDS011;36726;52.328;10.552;2022-12-07T07:16:59;14.45;;;6.53;;
21272;SDS011;36726;52.328;10.552;2022-12-07T07:19:28;10.98;;;6.43;;
21272;SDS011;36726;52.328;10.552;2022-12-07T07:21:55;14.57;;;6.85;;
21272;SDS011;36726;52.328;10.552;2022-12-07T07:24:22;10.32;;;6.32;;
21272;SDS011;36726;52.328;10.552;2022-12-07T07:26:48;11.32;;;6.30;;
21272;SDS011;36726;52.328;10.552;2022-12-07T07:29:15;9.35;;;6.03;;
21272;SDS011;36726;52.328;10.552;2022-12-07T07:31:41;10.13;;;5.68;;
21272;SDS011;36726;52.328;10.552;2022-12-07T07:34:08;9.23;;;5.55;;
21272;SDS011;36726;52.328;10.552;2022-12-07T07:36:35;10.13;;;5.22;;
21272;SDS011;36726;52.328;10.552;2022-12-07T07:39:01;9.45;;;5.57;;
21272;SDS011;36726;52.328;10.552;2022-12-07T07:41:28;9.68;;;5.47;;
21272;SDS011;36726;52.328;10.552;2022-12-07T07:43:55;9.40;;;5.25;;
21272;SDS011;36726;52.328;10.552;2022-12-07T07:46:21;11.32;;;6.15;;
21272;SDS011;36726;52.328;10.552;2022-12-07T07:48:48;10.82;;;6.25;;
21272;SDS011;36726;52.328;10.552;2022-12-07T07:51:15;15.40;;;6.45;;
21272;SDS011;36726;52.328;10.552;2022-12-07T07:53:42;13.60;;;6.38;;
21272;SDS011;36726;52.328;10.552;2022-12-07T07:56:08;11.50;;;6.25;;
21272;SDS011;36726;52.328;10.552;2022-12-07T07:58:35;16.05;;;6.78;;
21272;SDS011;36726;52.328;10.552;2022-12-07T08:01:05;13.85;;;7.18;;
21272;SDS011;36726;52.328;10.552;2022-12-07T08:03:33;11.95;;;6.35;;
21272;SDS011;36726;52.328;10.552;2022-12-07T08:05:59;13.75;;;6.10;;
21272;SDS011;36726;52.328;10.552;2022-12-07T08:08:27;10.48;;;6.22;;
21272;SDS011;36726;52.328;10.552;2022-12-07T08:10:54;11.82;;;6.28;;
21272;SDS011;36726;52.328;10.552;2022-12-07T08:13:21;10.88;;;5.95;;
21272;SDS011;36726;52.328;10.552;2022-12-07T08:15:55;11.85;;;5.63;;
21272;SDS011;36726;52.328;10.552;2022-12-07T08:18:22;9.40;;;5.10;;
21272;SDS011;36726;52.328;10.552;2022-12-07T08:20:49;9.38;;;5.28;;
21272;SDS011;36726;52.328;10.552;2022-12-07T08:23:15;11.80;;;5.85;;
21272;SDS011;36726;52.328;10.552;2022-12-07T08:25:43;8.25;;;5.32;;
21272;SDS011;36726;52.328;10.552;2022-12-07T08:28:09;9.27;;;5.35;;
21272;SDS011;36726;52.328;10.552;2022-12-07T08:30:36;9.18;;;5.57;;
21272;SDS011;36726;52.328;10.552;2022-12-07T08:33:03;11.25;;;4.90;;
21272;SDS011;36726;52.328;10.552;2022-12-07T08:35:32;11.23;;;4.90;;
21272;SDS011;36726;52.328;10.552;2022-12-07T08:38:00;10.77;;;5.10;;
21272;SDS011;36726;52.328;10.552;2022-12-07T08:40:28;8.48;;;4.63;;
21272;SDS011;36726;52.328;10.552;2022-12-07T08:42:55;9.82;;;4.57;;
21272;SDS011;36726;52.328;10.552;2022-12-07T08:45:22;8.07;;;4.60;;
21272;SDS011;36726;52.328;10.552;2022-12-07T08:47:57;13.57;;;4.13;;
21272;SDS011;36726;52.328;10.552;2022-12-07T08:50:30;8.02;;;4.32;;
21272;SDS011;36726;52.328;10.552;2022-12-07T08:52:59;12.00;;;4.20;;
21272;SDS011;36726;52.328;10.552;2022-12-07T08:55:27;8.80;;;3.88;;
21272;SDS011;36726;52.328;10.552;2022-12-07T08:57:55;7.93;;;3.85;;
21272;SDS011;36726;52.328;10.552;2022-12-07T09:00:25;7.90;;;3.95;;
21272;SDS011;36726;52.328;10.552;2022-12-07T09:02:53;7.00;;;3.75;;
21272;SDS011;36726;52.328;10.552;2022-12-07T09:05:20;7.63;;;3.60;;
21272;SDS011;36726;52.328;10.552;2022-12-07T09:07:48;7.60;;;3.83;;
21272;SDS011;36726;52.328;10.552;2022-12-07T09:10:21;6.18;;;3.38;;
21272;SDS011;36726;52.328;10.552;2022-12-07T09:12:47;7.82;;;2.90;;
21272;SDS011;36726;52.328;10.552;2022-12-07T09:15:14;5.28;;;2.55;;
21272;SDS011;36726;52.328;10.552;2022-12-07T09:17:40;5.72;;;2.67;;
21272;SDS011;36726;52.328;10.552;2022-12-07T09:20:07;4.68;;;2.72;;
21272;SDS011;36726;52.328;10.552;2022-12-07T09:22:34;5.75;;;2.70;;
21272;SDS011;36726;52.328;10.552;2022-12-07T09:25:01;5.20;;;2.40;;
21272;SDS011;36726;52.328;10.552;2022-12-07T09:27:28;4.75;;;2.60;;
21272;SDS011;36726;52.328;10.552;2022-12-07T09:29:55;6.45;;;2.55;;
21272;SDS011;36726;52.328;10.552;2022-12-07T09:32:22;4.45;;;2.83;;
21272;SDS011;36726;52.328;10.552;2022-12-07T09:34:49;5.55;;;2.58;;
21272;SDS011;36726;52.328;10.552;2022-12-07T09:37:16;5.10;;;2.47;;
21272;SDS011;36726;52.328;10.552;2022-12-07T09:39:42;4.65;;;2.33;;
21272;SDS011;36726;52.328;10.552;2022-12-07T09:42:26;6.00;;;2.33;;
21272;SDS011;36726;52.328;10.552;2022-12-07T09:44:55;4.25;;;2.60;;
21272;SDS011;36726;52.328;10.552;2022-12-07T09:47:24;4.75;;;2.60;;
21272;SDS011;36726;52.328;10.552;2022-12-07T09:49:52;6.65;;;2.58;;
21272;SDS011;36726;52.328;10.552;2022-12-07T09:52:27;6.05;;;2.60;;
21272;SDS011;36726;52.328;10.552;2022-12-07T09:55:08;4.95;;;2.88;;
21272;SDS011;36726;52.328;10.552;2022-12-07T09:57:37;5.88;;;2.40;;
21272;SDS011;36726;52.328;10.552;2022-12-07T10:00:15;5.38;;;2.63;;
21272;SDS011;36726;52.328;10.552;2022-12-07T10:02:43;3.45;;;2.45;;
21272;SDS011;36726;52.328;10.552;2022-12-07T10:05:15;5.13;;;2.35;;
21272;SDS011;36726;52.328;10.552;2022-12-07T10:07:50;3.60;;;2.35;;
21272;SDS011;36726;52.328;10.552;2022-12-07T10:10:28;6.22;;;2.28;;
21272;SDS011;36726;52.328;10.552;2022-12-07T10:13:05;5.70;;;2.35;;
21272;SDS011;36726;52.328;10.552;2022-12-07T10:15:51;4.28;;;2.03;;
21272;SDS011;36726;52.328;10.552;2022-12-07T10:18:35;6.15;;;2.00;;
21272;SDS011;36726;52.328;10.552;2022-12-07T10:23:40;4.25;;;1.70;;
21272;SDS011;36726;52.328;10.552;2022-12-07T10:35:42;4.32;;;1.30;;
21272;SDS011;36726;52.328;10.552;2022-12-07T10:38:14;3.03;;;1.40;;
21272;SDS011;36726;52.328;10.552;2022-12-07T10:40:42;3.97;;;1.30;;
21272;SDS011;36726;52.328;10.552;2022-12-07T10:48:38;1.98;;;1.08;;
21272;SDS011;36726;52.328;10.552;2022-12-07T10:56:28;2.05;;;1.20;;
21272;SDS011;36726;52.328;10.552;2022-12-07T11:05:15;2.53;;;1.60;;
21272;SDS011;36726;52.328;10.552;2022-12-07T11:08:12;5.70;;;2.05;;
21272;SDS011;36726;52.328;10.552;2022-12-07T11:19:10;4.90;;;2.20;;
21272;SDS011;36726;52.328;10.552;2022-12-07T11:22:23;6.25;;;1.48;;
21272;SDS011;36726;52.328;10.552;2022-12-07T11:25:03;4.03;;;1.63;;
21272;SDS011;36726;52.328;10.552;2022-12-07T11:27:48;3.95;;;1.52;;
21272;SDS011;36726;52.328;10.552;2022-12-07T11:30:28;4.32;;;1.23;;
21272;SDS011;36726;52.328;10.552;2022-12-07T11:35:45;2.38;;;1.48;;
21272;SDS011;36726;52.328;10.552;2022-12-07T11:38:14;2.60;;;1.50;;
21272;SDS011;36726;52.328;10.552;2022-12-07T11:40:51;3.97;;;1.42;;
21272;SDS011;36726;52.328;10.552;2022-12-07T11:46:06;3.20;;;1.58;;
21272;SDS011;36726;52.328;10.552;2022-12-07T11:51:37;3.75;;;1.90;;
21272;SDS011;36726;52.328;10.552;2022-12-07T11:54:26;4.93;;;2.05;;
21272;SDS011;36726;52.328;10.552;2022-12-07T11:56:59;5.43;;;2.60;;
21272;SDS011;36726;52.328;10.552;2022-12-07T11:59:32;7.30;;;3.30;;
21272;SDS011;36726;52.328;10.552;2022-12-07T12:02:18;5.68;;;3.58;;
21272;SDS011;36726;52.328;10.552;2022-12-07T12:04:52;9.27;;;5.25;;
21272;SDS011;36726;52.328;10.552;2022-12-07T12:07:25;6.00;;;3.78;;
21272;SDS011;36726;52.328;10.552;2022-12-07T12:13:19;4.20;;;2.63;;
21272;SDS011;36726;52.328;10.552;2022-12-07T12:16:59;7.15;;;3.00;;
21272;SDS011;36726;52.328;10.552;2022-12-07T12:22:18;7.15;;;2.53;;
21272;SDS011;36726;52.328;10.552;2022-12-07T12:24:51;4.93;;;2.58;;
21272;SDS011;36726;52.328;10.552;2022-12-07T12:27:24;4.70;;;1.90;;
21272;SDS011;36726;52.328;10.552;2022-12-07T12:29:58;5.10;;;2.13;;
21272;SDS011;36726;52.328;10.552;2022-12-07T12:37:54;1.60;;;0.90;;
21272;SDS011;36726;52.328;10.552;2022-12-07T12:42:52;5.82;;;0.73;;
21272;SDS011;36726;52.328;10.552;2022-12-07T12:45:25;1.73;;;0.77;;
21272;SDS011;36726;52.328;10.552;2022-12-07T13:00:46;2.10;;;0.68;;
21272;SDS011;36726;52.328;10.552;2022-12-07T13:03:25;2.78;;;0.77;;
21272;SDS011;36726;52.328;10.552;2022-12-07T13:09:15;1.05;;;0.47;;
21272;SDS011;36726;52.328;10.552;2022-12-07T13:11:47;4.18;;;0.80;;
21272;SDS011;36726;52.328;10.552;2022-12-07T13:20:01;4.22;;;1.15;;
21272;SDS011;36726;52.328;10.552;2022-12-07T13:22:42;2.15;;;1.05;;
21272;SDS011;36726;52.328;10.552;2022-12-07T13:25:11;7.30;;;1.15;;
21272;SDS011;36726;52.328;10.552;2022-12-07T13:28:00;1.48;;;1.00;;
21272;SDS011;36726;52.328;10.552;2022-12-07T13:30:31;1.85;;;1.00;;
21272;SDS011;36726;52.328;10.552;2022-12-07T13:32:58;2.63;;;1.40;;
21272;SDS011;36726;52.328;10.552;2022-12-07T13:37:56;4.25;;;1.25;;
21272;SDS011;36726;52.328;10.552;2022-12-07T13:40:23;5.47;;;1.55;;
21272;SDS011;36726;52.328;10.552;2022-12-07T13:42:57;4.22;;;2.10;;
21272;SDS011;36726;52.328;10.552;2022-12-07T13:49:00;2.97;;;2.40;;
21272;SDS011;36726;52.328;10.552;2022-12-07T13:51:14;9.95;;;4.82;;
21272;SDS011;36726;52.328;10.552;2022-12-07T13:53:49;15.57;;;7.30;;
21272;SDS011;36726;52.328;10.552;2022-12-07T13:56:18;7.78;;;3.42;;
21272;SDS011;36726;52.328;10.552;2022-12-07T13:58:47;4.45;;;2.30;;
21272;SDS011;36726;52.328;10.552;2022-12-07T14:01:14;3.58;;;2.20;;
21272;SDS011;36726;52.328;10.552;2022-12-07T14:03:41;5.03;;;2.97;;
21272;SDS011;36726;52.328;10.552;2022-12-07T14:06:24;6.25;;;2.70;;
21272;SDS011;36726;52.328;10.552;2022-12-07T14:11:55;7.47;;;3.50;;
21272;SDS011;36726;52.328;10.552;2022-12-07T14:14:25;7.75;;;3.83;;
21272;SDS011;36726;52.328;10.552;2022-12-07T14:17:23;4.93;;;3.00;;
21272;SDS011;36726;52.328;10.552;2022-12-07T14:19:53;6.13;;;3.00;;
21272;SDS011;36726;52.328;10.552;2022-12-07T14:30:19;4.78;;;2.60;;
21272;SDS011;36726;52.328;10.552;2022-12-07T14:32:46;7.07;;;2.90;;
21272;SDS011;36726;52.328;10.552;2022-12-07T14:35:17;7.30;;;2.53;;
21272;SDS011;36726;52.328;10.552;2022-12-07T14:37:45;10.70;;;2.35;;
21272;SDS011;36726;52.328;10.552;2022-12-07T14:40:16;11.85;;;3.25;;
21272;SDS011;36726;52.328;10.552;2022-12-07T14:42:49;6.78;;;2.88;;
21272;SDS011;36726;52.328;10.552;2022-12-07T14:45:20;6.40;;;2.47;;
21272;SDS011;36726;52.328;10.552;2022-12-07T14:47:48;5.32;;;2.50;;
21272;SDS011;36726;52.328;10.552;2022-12-07T14:50:36;5.18;;;2.30;;
21272;SDS011;36726;52.328;10.552;2022-12-07T14:53:09;5.95;;;2.63;;
21272;SDS011;36726;52.328;10.552;2022-12-07T14:55:48;6.15;;;2.75;;
21272;SDS011;36726;52.328;10.552;2022-12-07T14:58:15;11.52;;;3.25;;
21272;SDS011;36726;52.328;10.552;2022-12-07T15:00:43;8.07;;;3.28;;
21272;SDS011;36726;52.328;10.552;2022-12-07T15:03:10;5.60;;;2.75;;
21272;SDS011;36726;52.328;10.552;2022-12-07T15:05:39;6.68;;;3.17;;
21272;SDS011;36726;52.328;10.552;2022-12-07T15:08:12;5.93;;;2.95;;
21272;SDS011;36726;52.328;10.552;2022-12-07T15:10:39;8.85;;;3.55;;
21272;SDS011;36726;52.328;10.552;2022-12-07T15:13:06;6.53;;;3.08;;
21272;SDS011;36726;52.328;10.552;2022-12-07T15:15:53;5.70;;;2.95;;
21272;SDS011;36726;52.328;10.552;2022-12-07T15:18:21;5.50;;;3.22;;
21272;SDS011;36726;52.328;10.552;2022-12-07T15:20:49;13.65;;;7.82;;
21272;SDS011;36726;52.328;10.552;2022-12-07T15:23:16;6.80;;;3.63;;
21272;SDS011;36726;52.328;10.552;2022-12-07T15:25:43;6.90;;;3.50;;
21272;SDS011;36726;52.328;10.552;2022-12-07T15:28:12;6.95;;;2.72;;
21272;SDS011;36726;52.328;10.552;2022-12-07T15:30:39;8.52;;;2.97;;
21272;SDS011;36726;52.328;10.552;2022-12-07T15:33:12;10.25;;;2.63;;
21272;SDS011;36726;52.328;10.552;2022-12-07T15:35:42;3.58;;;2.15;;
21272;SDS011;36726;52.328;10.552;2022-12-07T15:38:10;4.82;;;1.90;;
21272;SDS011;36726;52.328;10.552;2022-12-07T15:40:38;6.00;;;1.90;;
21272;SDS011;36726;52.328;10.552;2022-12-07T15:43:05;6.72;;;1.77;;
21272;SDS011;36726;52.328;10.552;2022-12-07T15:45:52;3.25;;;1.42;;
21272;SDS011;36726;52.328;10.552;2022-12-07T15:48:18;6.85;;;1.80;;
21272;SDS011;36726;52.328;10.552;2022-12-07T15:51:01;5.78;;;1.60;;
21272;SDS011;36726;52.328;10.552;2022-12-07T15:53:37;5.97;;;2.08;;
21272;SDS011;36726;52.328;10.552;2022-12-07T15:56:07;8.18;;;2.40;;
21272;SDS011;36726;52.328;10.552;2022-12-07T15:58:36;6.45;;;2.45;;
21272;SDS011;36726;52.328;10.552;2022-12-07T16:01:13;3.60;;;2.00;;
21272;SDS011;36726;52.328;10.552;2022-12-07T16:03:42;5.55;;;2.55;;
21272;SDS011;36726;52.328;10.552;2022-12-07T16:06:09;8.90;;;2.25;;
21272;SDS011;36726;52.328;10.552;2022-12-07T16:08:36;5.63;;;1.35;;
21272;SDS011;36726;52.328;10.552;2022-12-07T16:11:06;4.07;;;1.65;;
21272;SDS011;36726;52.328;10.552;2022-12-07T16:13:33;3.85;;;1.23;;
21272;SDS011;36726;52.328;10.552;2022-12-07T16:16:04;5.22;;;1.42;;
21272;SDS011;36726;52.328;10.552;2022-12-07T16:18:32;3.60;;;1.13;;
21272;SDS011;36726;52.328;10.552;2022-12-07T16:20:59;2.17;;;1.00;;
21272;SDS011;36726;52.328;10.552;2022-12-07T16:23:26;2.10;;;1.05;;
21272;SDS011;36726;52.328;10.552;2022-12-07T16:25:53;2.58;;;0.75;;
21272;SDS011;36726;52.328;10.552;2022-12-07T16:28:22;2.63;;;0.60;;
21272;SDS011;36726;52.328;10.552;2022-12-07T16:30:48;5.70;;;1.10;;
21272;SDS011;36726;52.328;10.552;2022-12-07T16:33:15;2.08;;;1.15;;
21272;SDS011;36726;52.328;10.552;2022-12-07T16:35:42;2.30;;;1.30;;
21272;SDS011;36726;52.328;10.552;2022-12-07T16:38:10;2.40;;;0.80;;
21272;SDS011;36726;52.328;10.552;2022-12-07T16:40:36;1.75;;;0.98;;
21272;SDS011;36726;52.328;10.552;2022-12-07T16:43:03;1.10;;;1.00;;
21272;SDS011;36726;52.328;10.552;2022-12-07T16:45:30;3.33;;;1.00;;
21272;SDS011;36726;52.328;10.552;2022-12-07T16:47:57;3.95;;;1.50;;
21272;SDS011;36726;52.328;10.552;2022-12-07T16:50:24;5.70;;;1.70;;